Kirbyville, Missouri
Current Conditions -  °F | °C
As of 12:50 PM on Thursday 27 Nov 2014 (Local Time) from KBBG Reporting Station
Scattered Clouds Scattered Clouds  
Wind Chill: 37°   Ceiling: Unl
Heat Index: 41°   Visibility: 10mi
Dew Point: 25°   Wind: 6mph
Humidity: 53%   Direction: 230°SW
Pressure: 30.48"   Gusts: NA
Location:  36.62°N, 93.16°W
Report Text: KBBG 271850Z 23005KT 10SM SCT150 05/M04 A3048
Loading
Personal Weather Stations






























Interactive Weather Map New forecast layout! Learn more

10-Day Weather Forecast

Advertisements
Track Severe Weather on mobile